Time;durP1;ratioP1;P1;durP2;ratioP2;P2;SDS_P1;SDS_P2;PMS_P1;PMS_P2;Temp;Humidity;BMP_temperature;BMP_pressure;BME280_temperature;BME280_humidity;BME280_pressure;Samples;Min_cycle;Max_cycle;Signal;HPM_P1;HPM_P2
2022/11/29 00:00:01;;;;;;;24.30;12.58;;;;;;;3.53;80.79;101365.83;1646165;86;21245;-79
2022/11/29 00:03:06;;;;;;;19.70;11.53;;;;;;;3.65;79.89;101357.34;1624024;88;21256;-79
2022/11/29 00:06:15;;;;;;;27.32;12.85;;;;;;;3.63;79.89;101366.06;1625114;88;21205;-79
2022/11/29 00:09:20;;;;;;;27.75;12.90;;;;;;;3.76;79.45;101354.24;1653648;87;21242;-79
2022/11/29 00:12:26;;;;;;;19.32;12.28;;;;;;;3.92;78.49;101348.64;1686865;84;21258;-79
2022/11/29 00:15:33;;;;;;;25.40;11.48;;;;;;;3.92;78.13;101349.13;1706604;84;21183;-79
2022/11/29 00:18:39;;;;;;;20.23;11.48;;;;;;;4.02;78.18;101358.33;1694929;84;21117;-79
2022/11/29 00:21:45;;;;;;;23.32;12.43;;;;;;;4.01;77.80;101362.88;1693675;84;21203;-79
2022/11/29 00:24:51;;;;;;;24.80;12.43;;;;;;;4.12;77.70;101361.25;1694347;84;21207;-79
2022/11/29 00:27:57;;;;;;;28.42;17.65;;;;;;;4.26;77.07;101359.28;1694675;84;21199;-79
2022/11/29 00:30:57;;;;;;;28.23;13.60;;;;;;;4.24;76.92;101364.45;1693757;84;21191;-80
2022/11/29 00:34:05;;;;;;;23.32;11.38;;;;;;;4.32;76.64;101368.80;1694790;84;21171;-80
2022/11/29 00:37:11;;;;;;;21.60;13.35;;;;;;;4.14;77.16;101366.05;1695018;84;21693;-79
2022/11/29 00:40:17;;;;;;;27.65;15.20;;;;;;;4.30;76.70;101371.63;1693672;84;21227;-80
2022/11/29 00:43:24;;;;;;;41.92;29.45;;;;;;;4.30;76.76;101359.45;1693641;84;21751;-80
2022/11/29 00:46:29;;;;;;;16.90;10.53;;;;;;;4.05;77.16;101365.76;1694985;84;21157;-80
2022/11/29 00:49:35;;;;;;;29.05;15.83;;;;;;;3.76;78.67;101366.91;1693362;84;21167;-79
2022/11/29 00:52:41;;;;;;;29.60;18.10;;;;;;;3.72;79.13;101362.72;1693668;84;21155;-79
2022/11/29 00:55:47;;;;;;;17.50;11.75;;;;;;;3.62;80.16;101357.05;1693625;84;21192;-79
2022/11/29 00:58:53;;;;;;;24.20;11.33;;;;;;;3.64;80.52;101347.00;1694537;84;21235;-80
2022/11/29 01:01:53;;;;;;;21.48;9.98;;;;;;;3.83;79.94;101336.62;1686387;83;21205;-79
2022/11/29 01:04:58;;;;;;;21.17;10.95;;;;;;;3.63;80.48;101345.28;1683757;85;21233;-80
2022/11/29 01:08:04;;;;;;;20.15;11.10;;;;;;;3.79;79.96;101341.86;1684209;85;21189;-79
2022/11/29 01:11:22;;;;;;;22.95;11.30;;;;;;;3.58;80.70;101344.24;1684360;85;21169;-78
2022/11/29 01:14:22;;;;;;;24.98;13.00;;;;;;;3.61;81.03;101343.14;1683751;85;21201;-78
2022/11/29 01:17:27;;;;;;;32.00;10.53;;;;;;;3.67;80.66;101329.67;1684322;85;21737;-78
2022/11/29 01:20:33;;;;;;;18.98;10.58;;;;;;;3.60;81.29;101345.48;1683454;85;21205;-78
2022/11/29 01:23:38;;;;;;;30.75;12.65;;;;;;;3.56;81.43;101352.93;1683465;85;21231;-79
2022/11/29 01:26:44;;;;;;;30.40;11.70;;;;;;;3.52;81.62;101341.94;1684177;85;21185;-79
2022/11/29 01:29:49;;;;;;;22.73;11.33;;;;;;;3.52;81.64;101347.34;1683712;85;21188;-80
2022/11/29 01:32:55;;;;;;;24.55;13.15;;;;;;;3.60;80.88;101346.83;1683994;85;21173;-79
2022/11/29 01:36:01;;;;;;;28.57;11.73;;;;;;;3.58;80.96;101344.73;1682938;85;21769;-78
2022/11/29 01:39:10;;;;;;;28.35;10.98;;;;;;;3.55;80.61;101339.52;1682958;85;21249;-79
2022/11/29 01:42:19;;;;;;;27.55;12.50;;;;;;;3.70;80.25;101337.09;1705348;83;21165;-79
2022/11/29 01:45:31;;;;;;;29.80;11.93;;;;;;;3.91;79.25;101343.34;1718385;83;21209;-79
2022/11/29 01:48:38;;;;;;;29.77;17.77;;;;;;;3.62;80.05;101343.52;1718570;83;21165;-79
2022/11/29 01:51:46;;;;;;;27.05;11.33;;;;;;;3.54;80.50;101343.20;1718487;83;21788;-79
2022/11/29 01:54:54;;;;;;;25.45;10.60;;;;;;;3.83;80.29;101352.86;1700493;83;21174;-79
2022/11/29 01:57:59;;;;;;;33.55;11.75;;;;;;;3.95;79.82;101347.55;1714308;83;21213;-79
2022/11/29 02:01:07;;;;;;;21.12;10.68;;;;;;;4.01;79.87;101343.06;1715773;83;21208;-80
2022/11/29 02:04:13;;;;;;;23.92;9.20;;;;;;;4.28;78.77;101342.45;1717032;83;21714;-78
2022/11/29 02:07:19;;;;;;;25.20;11.70;;;;;;;4.25;78.13;101335.89;1717368;83;21169;-80
2022/11/29 02:10:25;;;;;;;29.48;10.25;;;;;;;4.37;77.92;101343.60;1693583;83;21821;-79
2022/11/29 02:13:47;;;;;;;25.88;11.22;;;;;;;4.45;77.23;101349.83;1682648;85;21189;-79
2022/11/29 02:17:10;;;;;;;25.90;10.98;;;;;;;4.57;76.57;101332.20;1682930;85;21193;-79
2022/11/29 02:20:48;;;;;;;30.00;11.48;;;;;;;4.53;76.72;101327.11;1682905;85;21213;-79
2022/11/29 02:24:18;;;;;;;25.08;10.32;;;;;;;4.25;77.14;101324.19;1682948;83;21237;-80
2022/11/29 02:27:50;;;;;;;21.10;8.33;;;;;;;4.39;77.01;101325.41;1674003;85;21694;-79
2022/11/29 02:31:25;;;;;;;23.85;10.38;;;;;;;4.44;76.90;101327.78;1676891;85;22223;-78
2022/11/29 02:35:03;;;;;;;21.37;9.25;;;;;;;4.35;76.84;101327.47;1680318;85;21798;-79
2022/11/29 02:38:36;;;;;;;21.35;10.18;;;;;;;4.54;75.95;101341.03;1680784;85;21181;-79
2022/11/29 02:42:17;;;;;;;17.07;8.38;;;;;;;4.63;75.56;101338.14;1661090;85;21193;-77
2022/11/29 02:45:28;;;;;;;21.82;9.45;;;;;;;4.58;75.23;101327.64;1680202;85;21536;-79
2022/11/29 02:48:57;;;;;;;19.73;9.03;;;;;;;4.91;74.54;101323.40;1680726;85;21737;-79
2022/11/29 02:52:11;;;;;;;31.25;10.40;;;;;;;4.80;75.18;101321.50;1680917;85;21142;-79
2022/11/29 02:55:33;;;;;;;21.42;8.93;;;;;;;4.81;75.15;101321.37;1691984;83;21753;-79
2022/11/29 02:58:43;;;;;;;16.45;8.90;;;;;;;4.81;75.00;101336.78;1714607;83;21205;-79
2022/11/29 03:01:58;;;;;;;;;;;;;;;4.86;74.84;101333.23;1716963;83;21782;-79
2022/11/29 03:05:49;;;;;;;22.67;10.13;;;;;;;4.86;74.67;101327.31;1678629;84;20225;-79
2022/11/29 03:09:27;;;;;;;18.90;9.35;;;;;;;4.70;75.36;101325.35;1604302;87;21196;-79
2022/11/29 03:12:46;;;;;;;19.50;9.58;;;;;;;4.85;75.27;101328.80;1698671;83;21244;-78
2022/11/29 03:16:45;;;;;;;21.75;10.18;;;;;;;4.90;75.26;101328.45;1696602;84;21238;-78
2022/11/29 03:20:13;;;;;;;22.13;10.43;;;;;;;4.85;75.54;101322.88;1711797;84;21264;-78
2022/11/29 03:23:41;;;;;;;21.25;10.23;;;;;;;4.23;77.40;101335.11;1697775;84;21194;-79
2022/11/29 03:26:52;;;;;;;18.85;9.45;;;;;;;4.29;77.87;101338.76;1699530;84;21192;-78
2022/11/29 03:30:05;;;;;;;17.50;9.85;;;;;;;4.61;76.91;101345.00;1681430;85;21255;-77
2022/11/29 03:33:36;;;;;;;28.80;11.83;;;;;;;4.57;76.79;101340.32;1681935;85;21519;-79
2022/11/29 03:37:04;;;;;;;24.32;10.58;;;;;;;4.54;76.86;101358.64;1641887;87;21254;-77
2022/11/29 03:40:23;;;;;;;20.68;9.65;;;;;;;4.42;77.18;101345.48;1650823;85;21238;-78
2022/11/29 03:43:40;;;;;;;20.60;12.58;;;;;;;4.30;77.62;101343.19;1669481;86;21196;-78
2022/11/29 03:46:50;;;;;;;23.02;11.85;;;;;;;4.43;77.75;101346.38;1668857;86;21203;-78
2022/11/29 03:50:13;;;;;;;;;;;;;;;4.77;76.71;101340.20;1671607;86;21215;-79
2022/11/29 03:53:43;;;;;;;21.05;11.40;;;;;;;4.86;75.75;101347.65;1669931;86;20599;-78
2022/11/29 03:56:49;;;;;;;25.37;10.80;;;;;;;4.57;76.31;101355.23;1712540;84;21213;-78
2022/11/29 04:00:13;;;;;;;26.02;10.88;;;;;;;4.71;75.84;101346.08;1713018;84;21264;-78
2022/11/29 04:03:51;;;;;;;27.42;10.85;;;;;;;4.52;76.39;101349.28;1713884;83;21157;-79
2022/11/29 04:07:46;;;;;;;27.25;11.38;;;;;;;4.29;76.63;101364.48;1690943;84;21152;-79
2022/11/29 04:11:28;;;;;;;19.70;9.90;;;;;;;4.50;76.05;101370.67;1691271;85;21196;-78
2022/11/29 04:15:21;;;;;;;17.50;10.13;;;;;;;4.54;76.22;101370.34;1690712;85;21776;-79
2022/11/29 04:18:50;;;;;;;20.48;9.88;;;;;;;4.25;77.10;101374.30;1687322;84;21677;-78
2022/11/29 04:22:16;;;;;;;22.05;11.20;;;;;;;4.39;76.49;101371.46;1691417;85;21149;-78
2022/11/29 04:25:43;;;;;;;18.35;9.20;;;;;;;4.57;76.39;101382.81;1691400;85;21160;-77
2022/11/29 04:29:09;;;;;;;23.65;11.55;;;;;;;4.66;75.83;101386.21;1692566;85;21183;-78
2022/11/29 04:32:38;;;;;;;30.85;11.08;;;;;;;4.42;76.79;101379.34;1692101;85;21180;-78
2022/11/29 04:36:05;;;;;;;22.73;10.28;;;;;;;4.65;76.56;101383.59;1691444;85;21220;-79
2022/11/29 04:39:25;;;;;;;21.93;10.82;;;;;;;4.54;76.55;101378.97;1691224;85;21875;-79
2022/11/29 04:42:50;;;;;;;17.25;10.53;;;;;;;4.41;77.05;101391.17;1691586;85;21153;-79
2022/11/29 04:46:48;;;;;;;21.12;11.35;;;;;;;4.36;77.19;101386.57;1689658;85;21180;-79
2022/11/29 04:50:33;;;;;;;23.57;10.35;;;;;;;4.28;77.67;101388.95;1690603;85;21169;-80
2022/11/29 04:54:02;;;;;;;20.48;10.63;;;;;;;4.22;77.69;101405.16;1688964;84;21657;-78
2022/11/29 04:57:46;;;;;;;24.85;8.70;;;;;;;4.09;77.93;101416.02;1687096;85;21212;-79
2022/11/29 05:01:13;;;;;;;24.95;10.10;;;;;;;4.23;77.62;101423.13;1691521;85;21223;-80
2022/11/29 05:04:45;;;;;;;20.02;9.23;;;;;;;4.08;77.59;101417.45;1691245;84;21219;-79
2022/11/29 05:07:57;;;;;;;25.97;9.25;;;;;;;4.01;77.95;101422.94;1681957;85;21185;-79
2022/11/29 05:11:35;;;;;;;17.05;8.98;;;;;;;3.85;79.18;101417.20;1680632;85;21235;-78
2022/11/29 05:14:57;;;;;;;22.32;10.03;;;;;;;4.07;78.12;101418.44;1681526;85;21213;-78
2022/11/29 05:18:35;;;;;;;26.93;10.23;;;;;;;4.24;77.37;101419.48;1681336;85;21204;-78
2022/11/29 05:22:24;;;;;;;20.25;9.00;;;;;;;4.18;77.76;101417.18;1674968;85;21193;-78
2022/11/29 05:25:43;;;;;;;25.88;10.88;;;;;;;4.14;77.49;101433.30;1570695;89;21229;-79
2022/11/29 05:29:04;;;;;;;27.00;10.23;;;;;;;3.96;77.65;101432.73;1554532;87;21220;-77
2022/11/29 05:32:19;;;;;;;25.17;9.50;;;;;;;3.74;78.35;101419.80;1654412;87;21244;-79
2022/11/29 05:35:55;;;;;;;22.13;10.10;;;;;;;3.75;78.21;101416.61;1652882;87;21240;-78
2022/11/29 05:39:21;;;;;;;29.23;10.45;;;;;;;3.66;78.58;101426.22;1652563;87;21268;-79
2022/11/29 05:43:08;;;;;;;20.60;9.85;;;;;;;3.69;78.84;101426.02;1654570;83;21829;-79
2022/11/29 05:46:43;;;;;;;21.52;10.72;;;;;;;3.45;79.60;101426.34;1670876;85;21240;-79
2022/11/29 05:50:01;;;;;;;32.73;9.70;;;;;;;3.23;80.68;101431.81;1680800;85;21264;-79
2022/11/29 05:53:29;;;;;;;30.92;11.88;;;;;;;3.49;79.91;101430.08;1682024;85;21181;-79
2022/11/29 05:56:44;;;;;;;24.95;10.30;;;;;;;3.38;79.93;101423.64;1681259;85;21177;-80
2022/11/29 05:59:51;;;;;;;24.87;11.63;;;;;;;3.44;79.93;101421.91;1681186;85;21248;-80
2022/11/29 06:03:10;;;;;;;23.00;9.28;;;;;;;3.38;80.57;101419.59;1680969;85;21224;-80
2022/11/29 06:06:42;;;;;;;23.38;10.45;;;;;;;3.32;80.88;101434.40;1680859;83;21213;-80
2022/11/29 06:09:55;;;;;;;30.52;10.75;;;;;;;3.33;80.81;101427.52;1680914;85;21213;-80
2022/11/29 06:13:36;;;;;;;23.02;10.63;;;;;;;3.70;79.74;101435.86;1669007;85;21189;-80
2022/11/29 06:17:34;;;;;;;22.73;10.58;;;;;;;3.71;78.97;101445.70;1676929;83;21149;-79
2022/11/29 06:21:19;;;;;;;17.17;10.70;;;;;;;3.78;79.04;101434.86;1663806;84;21233;-79
2022/11/29 06:24:55;;;;;;;34.90;11.88;;;;;;;4.11;77.86;101438.91;1688616;83;21240;-77
2022/11/29 06:28:32;;;;;;;23.62;11.05;;;;;;;4.12;77.25;101439.28;1681053;83;21161;-80
2022/11/29 06:31:50;;;;;;;18.07;9.80;;;;;;;4.14;76.58;101445.94;1614336;88;21783;-79
2022/11/29 06:35:04;;;;;;;32.53;10.55;;;;;;;4.06;76.32;101439.72;1671596;83;21209;-78
2022/11/29 06:38:26;;;;;;;27.20;11.03;;;;;;;3.89;76.63;101440.87;1681555;83;21192;-78
2022/11/29 06:41:31;;;;;;;24.27;10.15;;;;;;;4.03;76.28;101426.39;1672739;83;21157;-78
2022/11/29 06:44:36;;;;;;;21.48;10.40;;;;;;;3.97;76.37;101445.77;1685805;83;21773;-80
2022/11/29 06:48:11;;;;;;;21.82;10.08;;;;;;;3.88;76.36;101437.80;1691135;83;21177;-80
2022/11/29 06:51:40;;;;;;;24.43;10.00;;;;;;;3.84;76.36;101441.20;1700097;83;21768;-78
2022/11/29 06:55:08;;;;;;;25.82;10.10;;;;;;;4.00;76.28;101430.66;1685587;83;21217;-80
2022/11/29 06:58:31;;;;;;;24.20;12.00;;;;;;;3.92;75.86;101430.34;1685059;83;21208;-80
2022/11/29 07:01:53;;;;;;;26.87;10.98;;;;;;;3.95;75.75;101419.28;1685535;83;21173;-79
2022/11/29 07:05:21;;;;;;;28.42;9.68;;;;;;;3.79;75.77;101425.77;1683160;83;21204;-80
2022/11/29 07:08:27;;;;;;;24.87;11.85;;;;;;;3.78;76.01;101409.64;1703919;82;21821;-80
2022/11/29 07:11:33;;;;;;;30.57;11.10;;;;;;;3.85;75.92;101413.15;1706141;82;21187;-79
2022/11/29 07:14:40;;;;;;;27.13;11.57;;;;;;;3.82;75.86;101412.03;1707992;82;21178;-80
2022/11/29 07:18:19;;;;;;;25.55;11.85;;;;;;;3.70;76.09;101408.80;1703352;82;21173;-80
2022/11/29 07:21:29;;;;;;;29.50;10.68;;;;;;;3.89;75.79;101415.16;1711988;82;21712;-78
2022/11/29 07:24:40;;;;;;;20.43;9.95;;;;;;;4.09;74.69;101423.24;1725254;82;21178;-78
2022/11/29 07:28:16;;;;;;;26.07;11.12;;;;;;;3.99;74.65;101416.74;1736860;82;21271;-78
2022/11/29 07:31:33;;;;;;;18.10;8.38;;;;;;;4.04;74.34;101402.39;1707362;82;21194;-79
2022/11/29 07:35:14;;;;;;;17.52;9.30;;;;;;;3.89;74.01;101405.69;1700167;82;21189;-77
2022/11/29 07:38:33;;;;;;;22.07;8.43;;;;;;;4.19;73.74;101378.31;1694394;82;21162;-77
2022/11/29 07:41:53;;;;;;;24.23;9.13;;;;;;;4.31;73.10;101379.27;1703631;82;22126;-79
2022/11/29 07:45:12;;;;;;;22.70;8.78;;;;;;;4.34;72.47;101373.15;1701379;82;21217;-78
2022/11/29 07:48:19;;;;;;;23.60;10.10;;;;;;;4.64;71.91;101380.02;1709046;82;21599;-78
2022/11/29 07:51:25;;;;;;;22.05;9.65;;;;;;;4.74;71.53;101377.50;1707877;82;21817;-78
2022/11/29 07:54:31;;;;;;;18.80;8.23;;;;;;;4.63;71.36;101364.75;1702957;82;21506;-78
2022/11/29 07:57:37;;;;;;;18.92;8.70;;;;;;;4.56;71.01;101368.86;1698713;83;21186;-79
2022/11/29 08:00:42;;;;;;;23.22;9.38;;;;;;;4.49;71.57;101374.37;1696980;83;21473;-80
2022/11/29 08:03:49;;;;;;;21.80;7.60;;;;;;;4.53;70.83;101390.78;1713440;82;21142;-78
2022/11/29 08:06:56;;;;;;;16.35;8.78;;;;;;;4.64;70.37;101381.38;1708063;82;21175;-78
2022/11/29 08:10:02;;;;;;;19.48;8.03;;;;;;;4.43;70.62;101390.59;1714879;82;21450;-79
2022/11/29 08:13:09;;;;;;;21.97;8.03;;;;;;;4.65;70.23;101380.39;1712618;82;21165;-78
2022/11/29 08:16:14;;;;;;;21.55;7.67;;;;;;;4.93;69.30;101390.06;1697042;83;21143;-78
2022/11/29 08:19:20;;;;;;;19.55;8.30;;;;;;;4.81;68.82;101408.61;1694293;83;21206;-78
2022/11/29 08:22:25;;;;;;;20.90;7.83;;;;;;;4.94;68.02;101397.25;1707451;82;21684;-78
2022/11/29 08:25:33;;;;;;;14.75;7.92;;;;;;;4.96;67.78;101388.98;1711909;82;21217;-79
2022/11/29 08:28:39;;;;;;;25.40;7.50;;;;;;;4.72;68.91;101399.30;1707555;82;21535;-79
2022/11/29 08:31:45;;;;;;;16.17;6.28;;;;;;;4.66;69.17;101398.41;1696388;82;21501;-79
2022/11/29 08:34:51;;;;;;;17.48;9.18;;;;;;;4.81;68.23;101396.41;1704448;82;21174;-80
2022/11/29 08:37:57;;;;;;;12.93;7.08;;;;;;;4.80;68.50;101396.05;1706327;82;21237;-79
2022/11/29 08:41:10;;;;;;;16.05;6.25;;;;;;;5.05;67.83;101389.17;1703072;82;21178;-78
2022/11/29 08:44:15;;;;;;;20.77;6.25;;;;;;;4.86;69.11;101390.16;1709421;82;21716;-78
2022/11/29 08:47:36;;;;;;;12.15;5.55;;;;;;;4.85;68.79;101390.66;1704910;82;21158;-78
2022/11/29 08:50:42;;;;;;;14.75;5.20;;;;;;;4.81;67.48;101390.99;1708321;82;21142;-78
2022/11/29 08:53:50;;;;;;;17.17;5.45;;;;;;;5.01;66.51;101380.02;1709364;82;21173;-79
2022/11/29 08:56:55;;;;;;;11.18;5.03;;;;;;;5.47;63.39;101372.48;1710256;82;21198;-78
2022/11/29 09:00:03;;;;;;;15.60;4.70;;;;;;;5.66;62.96;101360.58;1707651;82;21699;-80
2022/11/29 09:06:37;;;;;;;12.05;5.05;;;;;;;5.61;63.78;101357.35;1715765;82;22243;-79
2022/11/29 09:09:43;;;;;;;19.35;5.45;;;;;;;5.64;63.46;101357.09;1696141;83;21761;-79
2022/11/29 09:12:49;;;;;;;17.30;4.85;;;;;;;5.60;62.61;101351.56;1685896;83;21164;-79
2022/11/29 09:15:55;;;;;;;11.70;4.70;;;;;;;5.54;62.70;101349.30;1678621;83;21165;-79
2022/11/29 09:18:59;;;;;;;8.80;4.62;;;;;;;5.45;62.73;101336.44;1684523;83;21232;-79
2022/11/29 09:22:05;;;;;;;18.52;5.30;;;;;;;5.55;61.75;101341.52;1685952;83;21181;-79
2022/11/29 09:25:09;;;;;;;13.13;4.55;;;;;;;5.34;62.47;101334.06;1684251;83;21208;-80
2022/11/29 09:28:15;;;;;;;11.00;4.97;;;;;;;5.39;63.12;101327.79;1687805;83;21195;-79
2022/11/29 09:31:22;;;;;;;12.63;4.47;;;;;;;5.39;62.24;101333.71;1687387;83;21816;-79
2022/11/29 09:34:28;;;;;;;20.25;11.05;;;;;;;5.31;62.57;101315.79;1689967;83;21243;-79
2022/11/29 09:37:35;;;;;;;10.35;5.28;;;;;;;5.26;62.75;101309.36;1688048;83;21193;-79
2022/11/29 09:41:00;;;;;;;10.78;5.47;;;;;;;5.44;62.22;101303.02;1681592;83;21783;-79
2022/11/29 09:44:48;;;;;;;13.15;4.62;;;;;;;5.45;61.13;101314.73;1692701;83;21241;-79
2022/11/29 09:48:27;;;;;;;10.13;4.75;;;;;;;5.19;61.17;101297.27;1703322;83;21763;-79
2022/11/29 09:51:57;;;;;;;11.35;4.95;;;;;;;5.08;61.92;101287.72;1691462;83;21164;-79
2022/11/29 09:55:28;;;;;;;8.23;3.40;;;;;;;4.92;62.94;101307.50;1680303;83;22029;-79
2022/11/29 09:58:48;;;;;;;11.45;4.12;;;;;;;4.96;63.16;101323.91;1672927;83;21236;-79
2022/11/29 10:02:24;;;;;;;13.60;4.67;;;;;;;4.96;61.67;101329.34;1674141;83;21193;-79
2022/11/29 10:05:46;;;;;;;20.00;6.12;;;;;;;4.73;61.97;101316.14;1687446;83;21240;-78
2022/11/29 10:09:11;;;;;;;11.60;4.95;;;;;;;4.90;62.39;101313.54;1689222;83;21245;-79
2022/11/29 10:12:30;;;;;;;15.55;5.03;;;;;;;5.03;63.72;101323.31;1672018;83;21777;-79
2022/11/29 10:15:42;;;;;;;12.00;5.10;;;;;;;5.18;63.41;101313.67;1673627;83;21185;-79
2022/11/29 10:19:15;;;;;;;10.18;4.83;;;;;;;5.18;63.77;101323.16;1685041;83;21137;-80
2022/11/29 10:22:33;;;;;;;12.47;5.17;;;;;;;5.22;62.57;101322.81;1673924;83;21240;-80
2022/11/29 10:25:48;;;;;;;15.58;6.15;;;;;;;5.32;61.86;101321.62;1673609;83;21197;-79
2022/11/29 10:28:56;;;;;;;12.88;5.33;;;;;;;5.39;62.04;101325.57;1680692;83;21197;-79
2022/11/29 10:32:04;;;;;;;8.73;4.53;;;;;;;5.48;62.70;101326.71;1678403;83;21181;-80
2022/11/29 10:35:02;;;;;;;11.85;5.17;;;;;;;5.21;63.29;101323.77;1683856;83;21209;-79
2022/11/29 10:38:12;;;;;;;10.70;4.87;;;;;;;5.33;62.39;101335.05;1671148;84;21718;-80
2022/11/29 10:41:23;;;;;;;12.37;5.58;;;;;;;5.40;62.50;101334.08;1677875;83;21193;-80
2022/11/29 10:44:30;;;;;;;9.05;4.87;;;;;;;5.46;62.06;101349.91;1678438;83;21188;-79
2022/11/29 10:47:35;;;;;;;16.82;5.03;;;;;;;5.44;61.95;101330.15;1687802;83;21183;-80
2022/11/29 10:50:43;;;;;;;9.98;4.47;;;;;;;5.41;61.40;101318.20;1687654;83;21216;-80
2022/11/29 10:53:48;;;;;;;11.00;4.03;;;;;;;5.37;60.64;101313.98;1669682;84;21205;-80
2022/11/29 10:56:56;;;;;;;16.50;4.47;;;;;;;5.66;60.01;101310.85;1676748;83;21866;-79
2022/11/29 11:00:14;;;;;;;11.38;4.12;;;;;;;5.68;59.43;101304.30;1690967;83;21161;-79
2022/11/29 11:03:32;;;;;;;15.58;4.67;;;;;;;5.73;60.57;101298.02;1680593;83;21185;-79
2022/11/29 11:06:56;;;;;;;19.37;4.92;;;;;;;5.63;59.02;101301.08;1679743;84;21161;-78
2022/11/29 11:10:03;;;;;;;12.85;4.50;;;;;;;5.68;59.05;101291.22;1684048;85;21224;-79
2022/11/29 11:13:26;;;;;;;9.43;4.08;;;;;;;5.73;59.71;101285.80;1683796;85;21145;-78
2022/11/29 11:16:25;;;;;;;15.30;4.58;;;;;;;5.87;59.47;101277.91;1688973;83;21710;-79
2022/11/29 11:19:40;;;;;;;13.83;4.95;;;;;;;5.90;58.02;101280.39;1681825;85;21452;-78
2022/11/29 11:22:27;;;;;;;10.78;4.30;;;;;;;5.71;57.41;101286.42;1681572;85;21212;-79
2022/11/29 11:25:42;;;;;;;9.73;4.00;;;;;;;5.61;59.41;101280.00;1684448;83;21180;-80
2022/11/29 11:28:42;;;;;;;16.07;4.50;;;;;;;5.61;58.66;101299.86;1685367;83;21176;-79
2022/11/29 11:31:45;;;;;;;14.43;4.65;;;;;;;5.48;58.75;101295.02;1686944;85;21220;-79
2022/11/29 11:34:59;;;;;;;11.93;4.55;;;;;;;5.66;58.39;101298.14;1682556;85;21770;-80
2022/11/29 11:38:04;;;;;;;17.57;4.85;;;;;;;5.63;59.39;101283.44;1691045;83;21157;-80
2022/11/29 11:45:00;;;;;;;9.63;4.37;;;;;;;5.64;59.18;101302.80;1686475;83;21221;-80
2022/11/29 11:48:19;;;;;;;11.15;4.15;;;;;;;5.61;58.37;101301.71;1685032;83;21161;-80
2022/11/29 11:51:30;;;;;;;16.05;5.03;;;;;;;5.74;58.55;101297.52;1708457;83;21745;-80
2022/11/29 11:54:37;;;;;;;12.20;4.78;;;;;;;5.61;58.83;101299.00;1675379;83;21216;-80
2022/11/29 11:57:43;;;;;;;15.35;4.75;;;;;;;5.61;59.16;101286.78;1691471;83;21187;-80
2022/11/29 12:01:09;;;;;;;12.20;5.53;;;;;;;5.64;59.93;101282.45;1683599;83;21239;-80
2022/11/29 12:04:27;;;;;;;13.95;5.58;;;;;;;5.75;60.48;101283.84;1690977;83;21192;-79
2022/11/29 12:07:54;;;;;;;23.22;5.45;;;;;;;5.75;60.01;101266.20;1667411;83;21741;-80
2022/11/29 12:11:04;;;;;;;13.20;4.97;;;;;;;5.60;60.66;101271.48;1677619;83;21157;-80
2022/11/29 12:14:09;;;;;;;11.68;5.35;;;;;;;5.79;60.78;101267.69;1688324;83;21762;-80
2022/11/29 12:17:27;;;;;;;12.15;4.83;;;;;;;5.61;60.71;101272.72;1685878;83;21165;-80
2022/11/29 12:20:52;;;;;;;11.03;4.97;;;;;;;5.55;61.26;101273.21;1657174;85;21322;-79
2022/11/29 12:24:15;;;;;;;16.97;5.75;;;;;;;5.59;61.30;101284.66;1676113;85;22083;-80
2022/11/29 12:27:21;;;;;;;16.02;4.78;;;;;;;5.58;61.53;101285.16;1663024;85;21209;-80
2022/11/29 12:30:27;;;;;;;13.43;5.42;;;;;;;5.71;60.95;101290.99;1686910;85;21228;-80
2022/11/29 12:33:40;;;;;;;13.18;4.78;;;;;;;5.59;61.16;101300.95;1661343;85;21164;-81
2022/11/29 12:37:17;;;;;;;12.70;5.22;;;;;;;5.66;61.01;101299.50;1661851;85;21185;-79
2022/11/29 12:41:07;;;;;;;16.10;4.97;;;;;;;5.78;60.13;101298.51;1672241;84;21773;-80
2022/11/29 12:44:34;;;;;;;15.15;5.72;;;;;;;5.94;59.65;101292.78;1687938;83;21220;-79
2022/11/29 12:48:16;;;;;;;11.45;4.80;;;;;;;5.84;60.00;101302.62;1687601;83;21167;-80
2022/11/29 12:51:33;;;;;;;16.25;5.65;;;;;;;5.45;60.75;101295.73;1692948;83;21221;-79
2022/11/29 12:55:02;;;;;;;17.17;5.50;;;;;;;5.17;62.73;101296.50;1690795;83;21214;-79
2022/11/29 12:58:53;;;;;;;14.33;5.08;;;;;;;5.31;62.10;101294.09;1685913;83;21714;-79
2022/11/29 13:02:43;;;;;;;14.03;5.03;;;;;;;5.27;62.30;101290.77;1654585;85;21782;-80
2022/11/29 13:06:11;;;;;;;12.63;4.75;;;;;;;5.23;62.55;101293.34;1683067;85;21188;-79
2022/11/29 13:09:38;;;;;;;22.60;5.37;;;;;;;5.19;62.73;101293.20;1680221;83;21726;-80
2022/11/29 13:13:08;;;;;;;11.05;5.10;;;;;;;5.25;62.48;101296.79;1680610;81;21325;-80
2022/11/29 13:16:52;;;;;;;16.90;4.83;;;;;;;5.08;61.97;101294.49;1690790;83;21208;-80
2022/11/29 13:20:08;;;;;;;16.97;5.45;;;;;;;5.23;60.71;101290.63;1688949;83;21196;-80
2022/11/29 13:23:48;;;;;;;8.83;3.67;;;;;;;5.54;59.59;101288.23;1680802;85;21125;-79
2022/11/29 13:26:56;;;;;;;17.25;4.72;;;;;;;5.52;59.29;101292.93;1638035;86;21523;-78
2022/11/29 13:30:03;;;;;;;13.35;4.58;;;;;;;5.43;58.66;101299.94;1659098;84;21197;-80
2022/11/29 13:33:19;;;;;;;13.00;5.25;;;;;;;5.36;58.56;101295.48;1660264;84;21800;-80
2022/11/29 13:36:35;;;;;;;11.78;4.03;;;;;;;5.27;59.05;101300.73;1665437;84;21210;-79
2022/11/29 13:40:09;;;;;;;13.25;3.77;;;;;;;5.39;58.87;101296.59;1656489;84;21240;-78
2022/11/29 13:43:32;;;;;;;10.28;4.55;;;;;;;5.31;58.79;101290.87;1663800;84;21730;-79
2022/11/29 13:46:32;;;;;;;13.95;4.42;;;;;;;5.35;58.78;101297.80;1662747;84;21255;-79
2022/11/29 13:50:05;;;;;;;13.18;4.37;;;;;;;5.13;59.23;101304.53;1662484;84;21939;-79
2022/11/29 13:53:26;;;;;;;15.20;5.70;;;;;;;5.19;59.42;101308.12;1651638;86;21848;-79
2022/11/29 13:56:46;;;;;;;13.25;6.10;;;;;;;5.27;59.85;101305.69;1647317;84;21836;-79
2022/11/29 13:59:51;;;;;;;15.15;4.53;;;;;;;5.23;60.34;101304.69;1658265;85;21231;-81
2022/11/29 14:02:55;;;;;;;17.17;5.80;;;;;;;5.31;59.94;101311.72;1624776;85;21749;-79
2022/11/29 14:06:14;;;;;;;13.15;4.85;;;;;;;5.17;60.42;101312.78;1673076;84;21808;-79
2022/11/29 14:09:35;;;;;;;11.83;5.22;;;;;;;5.08;60.75;101316.19;1684421;84;21192;-79
2022/11/29 14:12:48;;;;;;;15.48;5.78;;;;;;;4.97;61.17;101321.08;1680909;85;21217;-80
2022/11/29 14:15:53;;;;;;;15.68;5.65;;;;;;;4.88;61.42;101309.08;1661195;83;21240;-80
2022/11/29 14:19:18;;;;;;;16.07;6.25;;;;;;;4.73;62.13;101315.66;1645070;86;21267;-80
2022/11/29 14:22:26;;;;;;;15.32;5.50;;;;;;;4.74;61.98;101302.47;1663304;85;21200;-80
2022/11/29 14:25:32;;;;;;;15.58;5.40;;;;;;;4.82;61.64;101310.90;1677126;85;21228;-80
2022/11/29 14:28:45;;;;;;;13.30;5.53;;;;;;;4.82;61.26;101313.61;1682357;85;21145;-79
2022/11/29 14:31:58;;;;;;;11.33;5.95;;;;;;;4.85;61.14;101302.55;1677519;83;21156;-79
2022/11/29 14:35:36;;;;;;;16.32;5.30;;;;;;;4.82;61.12;101303.27;1662732;85;21216;-79
2022/11/29 14:39:06;;;;;;;11.90;5.42;;;;;;;4.93;60.15;101299.73;1663404;85;21780;-78
2022/11/29 14:42:26;;;;;;;14.28;5.60;;;;;;;4.98;59.81;101301.60;1662005;85;21180;-79
2022/11/29 14:45:35;;;;;;;11.53;5.83;;;;;;;4.86;59.73;101292.56;1661587;86;21224;-79
2022/11/29 14:48:43;;;;;;;11.68;5.75;;;;;;;4.72;60.56;101296.31;1666524;85;21694;-78
2022/11/29 14:51:49;;;;;;;12.25;5.30;;;;;;;4.67;60.73;101294.93;1666096;85;21232;-79
2022/11/29 14:55:06;;;;;;;13.50;6.10;;;;;;;4.56;61.13;101295.70;1637801;85;21236;-80
2022/11/29 14:58:25;;;;;;;11.63;5.70;;;;;;;5.05;59.72;101301.53;1685094;84;21244;-79
2022/11/29 15:01:29;;;;;;;13.55;6.80;;;;;;;5.00;59.74;101299.16;1689119;85;21177;-79
2022/11/29 15:04:34;;;;;;;22.13;6.75;;;;;;;4.98;59.65;101297.53;1674548;85;21193;-79
2022/11/29 15:07:40;;;;;;;15.80;6.03;;;;;;;4.92;59.61;101296.66;1644931;86;21260;-79
2022/11/29 15:10:55;;;;;;;17.80;6.10;;;;;;;4.96;59.77;101292.23;1661466;86;21225;-79
2022/11/29 15:14:12;;;;;;;16.85;5.50;;;;;;;5.04;59.54;101292.53;1660507;86;21205;-79
2022/11/29 15:17:50;;;;;;;14.83;5.65;;;;;;;4.98;59.54;101305.67;1662161;83;21217;-80
2022/11/29 15:21:22;;;;;;;16.45;6.12;;;;;;;5.07;59.33;101299.55;1660186;86;21792;-79